sensor_id;sensor_type;location;lat;lon;timestamp;temperature;humidity
1367;DHT22;16877;48.810;9.282;2022-11-03T00:01:06;21.10;47.90
1367;DHT22;16877;48.810;9.282;2022-11-03T00:03:32;21.10;47.90
1367;DHT22;16877;48.810;9.282;2022-11-03T00:05:59;21.10;47.90
1367;DHT22;16877;48.810;9.282;2022-11-03T00:08:35;21.10;47.90
1367;DHT22;16877;48.810;9.282;2022-11-03T00:11:07;21.10;47.90
1367;DHT22;16877;48.810;9.282;2022-11-03T00:13:35;21.10;47.90
1367;DHT22;16877;48.810;9.282;2022-11-03T00:16:03;21.10;47.90
1367;DHT22;16877;48.810;9.282;2022-11-03T00:18:30;21.10;47.90
1367;DHT22;16877;48.810;9.282;2022-11-03T00:20:58;21.10;47.90
1367;DHT22;16877;48.810;9.282;2022-11-03T00:23:27;21.10;48.00
1367;DHT22;16877;48.810;9.282;2022-11-03T00:26:02;21.10;48.00
1367;DHT22;16877;48.810;9.282;2022-11-03T00:28:30;21.10;48.00
1367;DHT22;16877;48.810;9.282;2022-11-03T00:30:57;21.10;48.00
1367;DHT22;16877;48.810;9.282;2022-11-03T00:33:23;21.10;48.00
1367;DHT22;16877;48.810;9.282;2022-11-03T00:35:55;21.00;47.90
1367;DHT22;16877;48.810;9.282;2022-11-03T00:38:22;21.10;48.10
1367;DHT22;16877;48.810;9.282;2022-11-03T00:40:52;21.00;47.90
1367;DHT22;16877;48.810;9.282;2022-11-03T00:43:20;21.00;48.00
1367;DHT22;16877;48.810;9.282;2022-11-03T00:45:47;21.00;48.00
1367;DHT22;16877;48.810;9.282;2022-11-03T00:48:14;21.00;48.00
1367;DHT22;16877;48.810;9.282;2022-11-03T00:51:01;21.00;48.00
1367;DHT22;16877;48.810;9.282;2022-11-03T00:53:28;20.90;47.90
1367;DHT22;16877;48.810;9.282;2022-11-03T00:55:55;20.90;47.90
1367;DHT22;16877;48.810;9.282;2022-11-03T00:58:23;20.90;47.90
1367;DHT22;16877;48.810;9.282;2022-11-03T01:00:50;20.90;47.90
1367;DHT22;16877;48.810;9.282;2022-11-03T01:03:16;20.80;47.80
1367;DHT22;16877;48.810;9.282;2022-11-03T01:05:44;20.80;47.80
1367;DHT22;16877;48.810;9.282;2022-11-03T01:08:31;20.80;47.80
1367;DHT22;16877;48.810;9.282;2022-11-03T01:11:04;20.80;47.90
1367;DHT22;16877;48.810;9.282;2022-11-03T01:13:49;20.80;47.80
1367;DHT22;16877;48.810;9.282;2022-11-03T01:16:16;20.70;47.80
1367;DHT22;16877;48.810;9.282;2022-11-03T01:18:42;20.70;47.80
1367;DHT22;16877;48.810;9.282;2022-11-03T01:21:09;20.70;47.80
1367;DHT22;16877;48.810;9.282;2022-11-03T01:23:36;20.70;47.80
1367;DHT22;16877;48.810;9.282;2022-11-03T01:26:03;20.70;47.80
1367;DHT22;16877;48.810;9.282;2022-11-03T01:28:32;20.70;47.80
1367;DHT22;16877;48.810;9.282;2022-11-03T01:31:03;20.60;47.80
1367;DHT22;16877;48.810;9.282;2022-11-03T01:33:29;20.60;47.80
1367;DHT22;16877;48.810;9.282;2022-11-03T01:35:56;20.60;47.80
1367;DHT22;16877;48.810;9.282;2022-11-03T01:38:23;20.60;47.80
1367;DHT22;16877;48.810;9.282;2022-11-03T01:40:50;20.60;47.80
1367;DHT22;16877;48.810;9.282;2022-11-03T01:43:18;20.60;47.80
1367;DHT22;16877;48.810;9.282;2022-11-03T01:45:46;20.60;47.80
1367;DHT22;16877;48.810;9.282;2022-11-03T01:48:15;20.50;47.90
1367;DHT22;16877;48.810;9.282;2022-11-03T01:50:44;20.50;47.80
1367;DHT22;16877;48.810;9.282;2022-11-03T01:53:13;20.50;47.80
1367;DHT22;16877;48.810;9.282;2022-11-03T01:55:42;20.50;47.80
1367;DHT22;16877;48.810;9.282;2022-11-03T01:58:12;20.50;47.80
1367;DHT22;16877;48.810;9.282;2022-11-03T02:00:40;20.50;47.80
1367;DHT22;16877;48.810;9.282;2022-11-03T02:03:08;20.50;47.90
1367;DHT22;16877;48.810;9.282;2022-11-03T02:05:37;20.50;47.90
1367;DHT22;16877;48.810;9.282;2022-11-03T02:08:08;20.50;47.90
1367;DHT22;16877;48.810;9.282;2022-11-03T02:10:37;20.40;47.80
1367;DHT22;16877;48.810;9.282;2022-11-03T02:13:11;20.40;47.80
1367;DHT22;16877;48.810;9.282;2022-11-03T02:15:42;20.40;47.80
1367;DHT22;16877;48.810;9.282;2022-11-03T02:18:10;20.40;47.90
1367;DHT22;16877;48.810;9.282;2022-11-03T02:20:40;20.40;47.90
1367;DHT22;16877;48.810;9.282;2022-11-03T02:23:25;20.40;48.00
1367;DHT22;16877;48.810;9.282;2022-11-03T02:25:54;20.40;48.00
1367;DHT22;16877;48.810;9.282;2022-11-03T02:28:24;20.30;47.90
1367;DHT22;16877;48.810;9.282;2022-11-03T02:30:57;20.30;47.90
1367;DHT22;16877;48.810;9.282;2022-11-03T02:33:40;20.30;47.90
1367;DHT22;16877;48.810;9.282;2022-11-03T02:36:12;20.30;47.90
1367;DHT22;16877;48.810;9.282;2022-11-03T02:38:45;20.30;48.00
1367;DHT22;16877;48.810;9.282;2022-11-03T02:41:15;20.30;48.00
1367;DHT22;16877;48.810;9.282;2022-11-03T02:43:43;20.30;48.10
1367;DHT22;16877;48.810;9.282;2022-11-03T02:46:12;20.30;48.10
1367;DHT22;16877;48.810;9.282;2022-11-03T02:48:40;20.20;48.00
1367;DHT22;16877;48.810;9.282;2022-11-03T02:51:07;20.20;48.00
1367;DHT22;16877;48.810;9.282;2022-11-03T02:53:37;20.20;48.10
1367;DHT22;16877;48.810;9.282;2022-11-03T02:56:08;20.20;48.10
1367;DHT22;16877;48.810;9.282;2022-11-03T02:58:41;20.20;48.10
1367;DHT22;16877;48.810;9.282;2022-11-03T03:01:15;20.20;48.10
1367;DHT22;16877;48.810;9.282;2022-11-03T03:03:45;20.20;48.20
1367;DHT22;16877;48.810;9.282;2022-11-03T03:06:16;20.20;48.30
1367;DHT22;16877;48.810;9.282;2022-11-03T03:08:47;20.10;48.20
1367;DHT22;16877;48.810;9.282;2022-11-03T03:11:15;20.10;48.20
1367;DHT22;16877;48.810;9.282;2022-11-03T03:14:07;20.10;48.20
1367;DHT22;16877;48.810;9.282;2022-11-03T03:16:40;20.10;48.20
1367;DHT22;16877;48.810;9.282;2022-11-03T03:19:20;20.10;48.20
1367;DHT22;16877;48.810;9.282;2022-11-03T03:21:51;20.10;48.20
1367;DHT22;16877;48.810;9.282;2022-11-03T03:24:24;20.10;48.20
1367;DHT22;16877;48.810;9.282;2022-11-03T03:26:55;20.00;48.60
1367;DHT22;16877;48.810;9.282;2022-11-03T03:29:28;20.00;48.00
1367;DHT22;16877;48.810;9.282;2022-11-03T03:31:59;20.00;47.90
1367;DHT22;16877;48.810;9.282;2022-11-03T03:34:27;20.00;47.90
1367;DHT22;16877;48.810;9.282;2022-11-03T03:36:57;20.00;47.80
1367;DHT22;16877;48.810;9.282;2022-11-03T03:39:26;20.00;47.70
1367;DHT22;16877;48.810;9.282;2022-11-03T03:41:56;20.00;47.70
1367;DHT22;16877;48.810;9.282;2022-11-03T03:44:26;19.90;47.50
1367;DHT22;16877;48.810;9.282;2022-11-03T03:46:57;19.90;47.50
1367;DHT22;16877;48.810;9.282;2022-11-03T03:49:24;19.90;48.00
1367;DHT22;16877;48.810;9.282;2022-11-03T03:51:51;19.90;47.50
1367;DHT22;16877;48.810;9.282;2022-11-03T03:54:17;19.90;47.50
1367;DHT22;16877;48.810;9.282;2022-11-03T03:56:47;19.80;47.40
1367;DHT22;16877;48.810;9.282;2022-11-03T03:59:16;19.80;47.40
1367;DHT22;16877;48.810;9.282;2022-11-03T04:01:44;19.80;47.40
1367;DHT22;16877;48.810;9.282;2022-11-03T04:04:11;19.80;47.40
1367;DHT22;16877;48.810;9.282;2022-11-03T04:06:37;19.80;47.40
1367;DHT22;16877;48.810;9.282;2022-11-03T04:09:04;19.80;47.40
1367;DHT22;16877;48.810;9.282;2022-11-03T04:11:31;19.80;47.40
1367;DHT22;16877;48.810;9.282;2022-11-03T04:14:15;19.70;47.30
1367;DHT22;16877;48.810;9.282;2022-11-03T04:17:00;19.70;47.30
1367;DHT22;16877;48.810;9.282;2022-11-03T04:19:44;19.70;47.30
1367;DHT22;16877;48.810;9.282;2022-11-03T04:22:31;19.70;47.40
1367;DHT22;16877;48.810;9.282;2022-11-03T04:24:59;19.60;47.30
1367;DHT22;16877;48.810;9.282;2022-11-03T04:27:28;19.60;47.40
1367;DHT22;16877;48.810;9.282;2022-11-03T04:29:58;19.60;47.30
1367;DHT22;16877;48.810;9.282;2022-11-03T04:32:28;19.60;47.30
1367;DHT22;16877;48.810;9.282;2022-11-03T04:34:55;19.60;47.40
1367;DHT22;16877;48.810;9.282;2022-11-03T04:37:26;19.70;47.50
1367;DHT22;16877;48.810;9.282;2022-11-03T04:39:56;19.60;47.40
1367;DHT22;16877;48.810;9.282;2022-11-03T04:42:24;19.60;47.40
1367;DHT22;16877;48.810;9.282;2022-11-03T04:44:51;19.60;47.30
1367;DHT22;16877;48.810;9.282;2022-11-03T04:47:18;19.60;47.40
1367;DHT22;16877;48.810;9.282;2022-11-03T04:49:47;19.60;47.50
1367;DHT22;16877;48.810;9.282;2022-11-03T04:52:16;19.60;47.60
1367;DHT22;16877;48.810;9.282;2022-11-03T04:54:46;19.50;47.60
1367;DHT22;16877;48.810;9.282;2022-11-03T04:57:15;19.50;47.70
1367;DHT22;16877;48.810;9.282;2022-11-03T04:59:44;19.60;47.90
1367;DHT22;16877;48.810;9.282;2022-11-03T05:02:14;19.50;47.80
1367;DHT22;16877;48.810;9.282;2022-11-03T05:04:41;19.50;47.90
1367;DHT22;16877;48.810;9.282;2022-11-03T05:07:21;19.50;48.00
1367;DHT22;16877;48.810;9.282;2022-11-03T05:09:49;19.50;48.00
1367;DHT22;16877;48.810;9.282;2022-11-03T05:12:17;19.50;48.00
1367;DHT22;16877;48.810;9.282;2022-11-03T05:14:44;19.50;48.10
1367;DHT22;16877;48.810;9.282;2022-11-03T05:17:18;19.50;48.20
1367;DHT22;16877;48.810;9.282;2022-11-03T05:19:46;19.50;48.20
1367;DHT22;16877;48.810;9.282;2022-11-03T05:22:17;19.50;48.20
1367;DHT22;16877;48.810;9.282;2022-11-03T05:24:45;19.50;48.30
1367;DHT22;16877;48.810;9.282;2022-11-03T05:27:15;19.50;48.30
1367;DHT22;16877;48.810;9.282;2022-11-03T05:29:44;19.50;48.40
1367;DHT22;16877;48.810;9.282;2022-11-03T05:32:14;19.50;48.40
1367;DHT22;16877;48.810;9.282;2022-11-03T05:34:43;19.50;48.40
1367;DHT22;16877;48.810;9.282;2022-11-03T05:37:24;19.50;48.40
1367;DHT22;16877;48.810;9.282;2022-11-03T05:39:52;19.50;48.40
1367;DHT22;16877;48.810;9.282;2022-11-03T05:42:31;19.50;48.40
1367;DHT22;16877;48.810;9.282;2022-11-03T05:45:02;19.50;48.40
1367;DHT22;16877;48.810;9.282;2022-11-03T05:47:33;19.50;48.50
1367;DHT22;16877;48.810;9.282;2022-11-03T05:50:13;19.50;48.60
1367;DHT22;16877;48.810;9.282;2022-11-03T05:52:45;19.50;48.50
1367;DHT22;16877;48.810;9.282;2022-11-03T05:55:21;19.50;48.50
1367;DHT22;16877;48.810;9.282;2022-11-03T05:57:49;19.40;48.50
1367;DHT22;16877;48.810;9.282;2022-11-03T06:00:26;19.50;48.50
1367;DHT22;16877;48.810;9.282;2022-11-03T06:02:54;19.50;48.60
1367;DHT22;16877;48.810;9.282;2022-11-03T06:05:22;19.50;48.60
1367;DHT22;16877;48.810;9.282;2022-11-03T06:07:53;19.50;48.50
1367;DHT22;16877;48.810;9.282;2022-11-03T06:10:24;19.50;48.40
1367;DHT22;16877;48.810;9.282;2022-11-03T06:12:53;19.50;48.40
1367;DHT22;16877;48.810;9.282;2022-11-03T06:15:28;19.50;48.40
1367;DHT22;16877;48.810;9.282;2022-11-03T06:17:55;19.40;48.30
1367;DHT22;16877;48.810;9.282;2022-11-03T06:20:22;19.50;48.40
1367;DHT22;16877;48.810;9.282;2022-11-03T06:22:52;19.50;48.40
1367;DHT22;16877;48.810;9.282;2022-11-03T06:25:24;19.50;48.30
1367;DHT22;16877;48.810;9.282;2022-11-03T06:27:53;19.50;48.30
1367;DHT22;16877;48.810;9.282;2022-11-03T06:30:23;19.50;48.20
1367;DHT22;16877;48.810;9.282;2022-11-03T06:32:51;19.40;48.10
1367;DHT22;16877;48.810;9.282;2022-11-03T06:35:18;19.50;48.20
1367;DHT22;16877;48.810;9.282;2022-11-03T06:37:45;19.50;48.20
1367;DHT22;16877;48.810;9.282;2022-11-03T06:40:35;19.50;48.20
1367;DHT22;16877;48.810;9.282;2022-11-03T06:43:30;19.50;48.30
1367;DHT22;16877;48.810;9.282;2022-11-03T06:46:01;19.60;49.00
1367;DHT22;16877;48.810;9.282;2022-11-03T06:48:33;19.60;48.40
1367;DHT22;16877;48.810;9.282;2022-11-03T06:51:00;19.70;48.40
1367;DHT22;16877;48.810;9.282;2022-11-03T06:53:30;19.80;48.30
1367;DHT22;16877;48.810;9.282;2022-11-03T06:55:59;19.90;48.30
1367;DHT22;16877;48.810;9.282;2022-11-03T06:58:28;20.00;48.30
1367;DHT22;16877;48.810;9.282;2022-11-03T07:00:58;20.10;48.20
1367;DHT22;16877;48.810;9.282;2022-11-03T07:03:26;20.20;48.20
1367;DHT22;16877;48.810;9.282;2022-11-03T07:05:56;20.30;48.20
1367;DHT22;16877;48.810;9.282;2022-11-03T07:08:27;20.40;48.20
1367;DHT22;16877;48.810;9.282;2022-11-03T07:11:00;20.60;48.80
1367;DHT22;16877;48.810;9.282;2022-11-03T07:13:30;20.70;51.60
1367;DHT22;16877;48.810;9.282;2022-11-03T07:15:57;20.90;51.20
1367;DHT22;16877;48.810;9.282;2022-11-03T07:18:27;21.10;50.50
1367;DHT22;16877;48.810;9.282;2022-11-03T07:20:56;21.20;50.10
1367;DHT22;16877;48.810;9.282;2022-11-03T07:23:27;21.40;49.80
1367;DHT22;16877;48.810;9.282;2022-11-03T07:25:57;21.50;49.60
1367;DHT22;16877;48.810;9.282;2022-11-03T07:28:32;21.70;49.70
1367;DHT22;16877;48.810;9.282;2022-11-03T07:31:00;21.80;53.50
1367;DHT22;16877;48.810;9.282;2022-11-03T07:33:35;22.00;52.60
1367;DHT22;16877;48.810;9.282;2022-11-03T07:36:02;22.10;51.80
1367;DHT22;16877;48.810;9.282;2022-11-03T07:38:29;22.20;50.30
1367;DHT22;16877;48.810;9.282;2022-11-03T07:40:58;22.30;49.90
1367;DHT22;16877;48.810;9.282;2022-11-03T07:43:30;22.40;49.40
1367;DHT22;16877;48.810;9.282;2022-11-03T07:46:00;22.60;51.40
1367;DHT22;16877;48.810;9.282;2022-11-03T07:48:31;22.80;52.60
1367;DHT22;16877;48.810;9.282;2022-11-03T07:51:00;22.70;50.80
1367;DHT22;16877;48.810;9.282;2022-11-03T07:53:35;22.60;48.00
1367;DHT22;16877;48.810;9.282;2022-11-03T07:56:12;22.30;47.20
1367;DHT22;16877;48.810;9.282;2022-11-03T07:58:42;22.20;51.00
1367;DHT22;16877;48.810;9.282;2022-11-03T08:01:24;22.20;49.60
1367;DHT22;16877;48.810;9.282;2022-11-03T08:03:55;22.20;48.30
1367;DHT22;16877;48.810;9.282;2022-11-03T08:06:22;22.10;48.20
1367;DHT22;16877;48.810;9.282;2022-11-03T08:08:49;22.00;48.00
1367;DHT22;16877;48.810;9.282;2022-11-03T08:11:16;22.00;48.00
1367;DHT22;16877;48.810;9.282;2022-11-03T08:13:44;21.90;48.30
1367;DHT22;16877;48.810;9.282;2022-11-03T08:16:10;21.90;48.70
1367;DHT22;16877;48.810;9.282;2022-11-03T08:18:37;21.90;48.60
1367;DHT22;16877;48.810;9.282;2022-11-03T08:21:04;21.90;48.50
1367;DHT22;16877;48.810;9.282;2022-11-03T08:23:31;21.80;48.50
1367;DHT22;16877;48.810;9.282;2022-11-03T08:25:58;21.90;48.90
1367;DHT22;16877;48.810;9.282;2022-11-03T08:28:24;21.90;48.90
1367;DHT22;16877;48.810;9.282;2022-11-03T08:30:53;21.90;48.80
1367;DHT22;16877;48.810;9.282;2022-11-03T08:33:19;21.90;49.00
1367;DHT22;16877;48.810;9.282;2022-11-03T08:35:46;21.90;49.30
1367;DHT22;16877;48.810;9.282;2022-11-03T08:38:13;21.90;49.20
1367;DHT22;16877;48.810;9.282;2022-11-03T08:40:39;22.00;49.20
1367;DHT22;16877;48.810;9.282;2022-11-03T08:43:06;22.00;49.20
1367;DHT22;16877;48.810;9.282;2022-11-03T08:45:33;22.10;49.10
1367;DHT22;16877;48.810;9.282;2022-11-03T08:48:01;22.10;49.10
1367;DHT22;16877;48.810;9.282;2022-11-03T08:50:27;22.20;49.10
1367;DHT22;16877;48.810;9.282;2022-11-03T08:52:54;22.30;49.00
1367;DHT22;16877;48.810;9.282;2022-11-03T08:55:21;22.40;49.20
1367;DHT22;16877;48.810;9.282;2022-11-03T08:57:48;22.40;48.90
1367;DHT22;16877;48.810;9.282;2022-11-03T09:00:15;22.40;48.70
1367;DHT22;16877;48.810;9.282;2022-11-03T09:02:42;22.60;48.80
1367;DHT22;16877;48.810;9.282;2022-11-03T09:05:10;22.70;48.90
1367;DHT22;16877;48.810;9.282;2022-11-03T09:07:38;22.80;48.70
1367;DHT22;16877;48.810;9.282;2022-11-03T09:10:07;22.90;48.50
1367;DHT22;16877;48.810;9.282;2022-11-03T09:12:34;23.00;48.40
1367;DHT22;16877;48.810;9.282;2022-11-03T09:15:01;22.90;47.90
1367;DHT22;16877;48.810;9.282;2022-11-03T09:17:28;23.00;48.00
1367;DHT22;16877;48.810;9.282;2022-11-03T09:19:54;23.00;48.00
1367;DHT22;16877;48.810;9.282;2022-11-03T09:22:22;23.20;48.20
1367;DHT22;16877;48.810;9.282;2022-11-03T09:24:49;23.40;48.30
1367;DHT22;16877;48.810;9.282;2022-11-03T09:27:16;23.40;48.50
1367;DHT22;16877;48.810;9.282;2022-11-03T09:29:43;23.60;47.80
1367;DHT22;16877;48.810;9.282;2022-11-03T09:32:10;23.60;47.50
1367;DHT22;16877;48.810;9.282;2022-11-03T09:34:36;23.70;47.40
1367;DHT22;16877;48.810;9.282;2022-11-03T09:37:03;23.90;47.20
1367;DHT22;16877;48.810;9.282;2022-11-03T09:39:31;23.90;46.60
1367;DHT22;16877;48.810;9.282;2022-11-03T09:41:59;23.90;46.70
1367;DHT22;16877;48.810;9.282;2022-11-03T09:44:28;24.00;47.10
1367;DHT22;16877;48.810;9.282;2022-11-03T09:46:55;24.00;47.00
1367;DHT22;16877;48.810;9.282;2022-11-03T09:49:22;24.00;46.60
1367;DHT22;16877;48.810;9.282;2022-11-03T09:51:49;24.00;46.20
1367;DHT22;16877;48.810;9.282;2022-11-03T09:54:16;24.00;46.30
1367;DHT22;16877;48.810;9.282;2022-11-03T09:56:44;24.10;46.40
1367;DHT22;16877;48.810;9.282;2022-11-03T09:59:15;24.00;46.20
1367;DHT22;16877;48.810;9.282;2022-11-03T10:01:43;24.00;46.00
1367;DHT22;16877;48.810;9.282;2022-11-03T10:04:13;23.90;46.00
1367;DHT22;16877;48.810;9.282;2022-11-03T10:06:39;23.80;45.90
1367;DHT22;16877;48.810;9.282;2022-11-03T10:09:11;23.70;46.10
1367;DHT22;16877;48.810;9.282;2022-11-03T10:11:40;23.50;46.30
1367;DHT22;16877;48.810;9.282;2022-11-03T10:14:10;23.40;46.30
1367;DHT22;16877;48.810;9.282;2022-11-03T10:16:39;23.50;46.60
1367;DHT22;16877;48.810;9.282;2022-11-03T10:19:08;23.40;46.50
1367;DHT22;16877;48.810;9.282;2022-11-03T10:21:35;23.40;46.20
1367;DHT22;16877;48.810;9.282;2022-11-03T10:24:02;23.20;46.10
1367;DHT22;16877;48.810;9.282;2022-11-03T10:26:42;23.10;46.50
1367;DHT22;16877;48.810;9.282;2022-11-03T10:29:17;22.80;46.70
1367;DHT22;16877;48.810;9.282;2022-11-03T10:31:46;22.40;47.00
1367;DHT22;16877;48.810;9.282;2022-11-03T10:34:24;22.30;47.30
1367;DHT22;16877;48.810;9.282;2022-11-03T10:37:09;22.40;47.60
1367;DHT22;16877;48.810;9.282;2022-11-03T10:39:36;22.40;47.80
1367;DHT22;16877;48.810;9.282;2022-11-03T10:42:03;22.40;48.10
1367;DHT22;16877;48.810;9.282;2022-11-03T10:44:31;22.50;48.10
1367;DHT22;16877;48.810;9.282;2022-11-03T10:46:59;22.50;48.30
1367;DHT22;16877;48.810;9.282;2022-11-03T10:49:27;22.60;48.80
1367;DHT22;16877;48.810;9.282;2022-11-03T10:52:00;22.70;49.10
1367;DHT22;16877;48.810;9.282;2022-11-03T10:54:33;22.70;49.30
1367;DHT22;16877;48.810;9.282;2022-11-03T10:57:02;22.70;49.30
1367;DHT22;16877;48.810;9.282;2022-11-03T10:59:32;22.80;49.40
1367;DHT22;16877;48.810;9.282;2022-11-03T11:02:01;22.90;49.50
1367;DHT22;16877;48.810;9.282;2022-11-03T11:04:31;23.00;49.10
1367;DHT22;16877;48.810;9.282;2022-11-03T11:06:58;22.90;48.80
1367;DHT22;16877;48.810;9.282;2022-11-03T11:09:26;23.00;48.60
1367;DHT22;16877;48.810;9.282;2022-11-03T11:12:03;23.00;48.70
1367;DHT22;16877;48.810;9.282;2022-11-03T11:14:37;23.10;48.80
1367;DHT22;16877;48.810;9.282;2022-11-03T11:17:04;23.20;48.50
1367;DHT22;16877;48.810;9.282;2022-11-03T11:22:51;23.20;48.50
1367;DHT22;16877;48.810;9.282;2022-11-03T11:25:18;23.00;48.40
1367;DHT22;16877;48.810;9.282;2022-11-03T11:27:53;23.00;48.20
1367;DHT22;16877;48.810;9.282;2022-11-03T11:33:31;23.10;48.90
1367;DHT22;16877;48.810;9.282;2022-11-03T11:36:04;23.10;48.70
1367;DHT22;16877;48.810;9.282;2022-11-03T11:38:59;23.10;49.00
1367;DHT22;16877;48.810;9.282;2022-11-03T11:44:46;23.10;48.90
1367;DHT22;16877;48.810;9.282;2022-11-03T11:47:28;23.20;48.90
1367;DHT22;16877;48.810;9.282;2022-11-03T11:53:17;23.10;48.60
1367;DHT22;16877;48.810;9.282;2022-11-03T11:55:54;23.00;48.60
1367;DHT22;16877;48.810;9.282;2022-11-03T11:58:33;23.20;48.90
1367;DHT22;16877;48.810;9.282;2022-11-03T12:01:02;23.10;48.70
1367;DHT22;16877;48.810;9.282;2022-11-03T12:03:35;23.10;48.60
1367;DHT22;16877;48.810;9.282;2022-11-03T12:06:04;23.10;48.60
1367;DHT22;16877;48.810;9.282;2022-11-03T12:08:31;23.00;48.70
1367;DHT22;16877;48.810;9.282;2022-11-03T12:11:00;23.30;54.30
1367;DHT22;16877;48.810;9.282;2022-11-03T12:13:44;23.90;58.40
1367;DHT22;16877;48.810;9.282;2022-11-03T12:16:31;24.40;61.70
1367;DHT22;16877;48.810;9.282;2022-11-03T12:19:35;24.40;59.30
1367;DHT22;16877;48.810;9.282;2022-11-03T12:22:05;24.20;57.40
1367;DHT22;16877;48.810;9.282;2022-11-03T12:24:44;24.10;57.80
1367;DHT22;16877;48.810;9.282;2022-11-03T12:27:39;23.80;57.50
1367;DHT22;16877;48.810;9.282;2022-11-03T12:30:16;24.00;59.80
1367;DHT22;16877;48.810;9.282;2022-11-03T12:32:43;24.30;60.50
1367;DHT22;16877;48.810;9.282;2022-11-03T12:35:11;24.60;59.80
1367;DHT22;16877;48.810;9.282;2022-11-03T12:37:40;25.00;59.80
1367;DHT22;16877;48.810;9.282;2022-11-03T12:40:08;24.90;59.50
1367;DHT22;16877;48.810;9.282;2022-11-03T12:42:35;25.30;59.50
1367;DHT22;16877;48.810;9.282;2022-11-03T12:45:02;25.20;59.30
1367;DHT22;16877;48.810;9.282;2022-11-03T12:47:29;25.30;59.20
1367;DHT22;16877;48.810;9.282;2022-11-03T12:49:56;25.30;59.20
1367;DHT22;16877;48.810;9.282;2022-11-03T12:52:22;25.20;59.30
1367;DHT22;16877;48.810;9.282;2022-11-03T12:54:50;25.10;59.90
1367;DHT22;16877;48.810;9.282;2022-11-03T12:57:17;24.90;60.60
1367;DHT22;16877;48.810;9.282;2022-11-03T12:59:44;24.80;60.90
1367;DHT22;16877;48.810;9.282;2022-11-03T13:02:10;24.60;61.40
1367;DHT22;16877;48.810;9.282;2022-11-03T13:04:37;24.60;61.10
1367;DHT22;16877;48.810;9.282;2022-11-03T13:07:04;24.70;61.10
1367;DHT22;16877;48.810;9.282;2022-11-03T13:09:31;24.80;61.80
1367;DHT22;16877;48.810;9.282;2022-11-03T13:12:01;24.40;61.40
1367;DHT22;16877;48.810;9.282;2022-11-03T13:14:45;24.30;61.50
1367;DHT22;16877;48.810;9.282;2022-11-03T13:17:12;24.50;62.00
1367;DHT22;16877;48.810;9.282;2022-11-03T13:19:39;24.20;62.10
1367;DHT22;16877;48.810;9.282;2022-11-03T13:22:06;24.20;62.70
1367;DHT22;16877;48.810;9.282;2022-11-03T13:24:32;24.20;62.90
1367;DHT22;16877;48.810;9.282;2022-11-03T13:27:00;24.10;63.20
1367;DHT22;16877;48.810;9.282;2022-11-03T13:29:27;24.00;63.50
1367;DHT22;16877;48.810;9.282;2022-11-03T13:31:54;24.20;64.00
1367;DHT22;16877;48.810;9.282;2022-11-03T13:34:20;24.00;64.00
1367;DHT22;16877;48.810;9.282;2022-11-03T13:36:47;23.80;64.00
1367;DHT22;16877;48.810;9.282;2022-11-03T13:39:14;24.00;64.50
1367;DHT22;16877;48.810;9.282;2022-11-03T13:41:40;23.70;64.30
1367;DHT22;16877;48.810;9.282;2022-11-03T13:44:08;23.90;64.90
1367;DHT22;16877;48.810;9.282;2022-11-03T13:46:35;23.90;64.80
1367;DHT22;16877;48.810;9.282;2022-11-03T13:49:02;23.90;65.20
1367;DHT22;16877;48.810;9.282;2022-11-03T13:51:29;23.50;64.70
1367;DHT22;16877;48.810;9.282;2022-11-03T13:53:56;23.50;64.90
1367;DHT22;16877;48.810;9.282;2022-11-03T13:56:23;23.70;65.10
1367;DHT22;16877;48.810;9.282;2022-11-03T13:58:50;23.60;65.50
1367;DHT22;16877;48.810;9.282;2022-11-03T14:01:18;23.50;65.50
1367;DHT22;16877;48.810;9.282;2022-11-03T14:03:45;23.60;65.80
1367;DHT22;16877;48.810;9.282;2022-11-03T14:06:11;23.50;65.70
1367;DHT22;16877;48.810;9.282;2022-11-03T14:08:38;23.70;65.50
1367;DHT22;16877;48.810;9.282;2022-11-03T14:11:05;23.40;64.80
1367;DHT22;16877;48.810;9.282;2022-11-03T14:13:45;23.50;65.30
1367;DHT22;16877;48.810;9.282;2022-11-03T14:16:12;23.40;65.20
1367;DHT22;16877;48.810;9.282;2022-11-03T14:18:40;23.40;65.60
1367;DHT22;16877;48.810;9.282;2022-11-03T14:21:07;23.40;66.40
1367;DHT22;16877;48.810;9.282;2022-11-03T14:23:34;23.40;66.50
1367;DHT22;16877;48.810;9.282;2022-11-03T14:26:00;23.30;66.40
1367;DHT22;16877;48.810;9.282;2022-11-03T14:28:27;23.20;66.50
1367;DHT22;16877;48.810;9.282;2022-11-03T14:30:54;23.30;67.30
1367;DHT22;16877;48.810;9.282;2022-11-03T14:33:24;23.30;66.90
1367;DHT22;16877;48.810;9.282;2022-11-03T14:35:52;23.00;66.90
1367;DHT22;16877;48.810;9.282;2022-11-03T14:38:18;23.20;67.00
1367;DHT22;16877;48.810;9.282;2022-11-03T14:40:45;23.00;66.50
1367;DHT22;16877;48.810;9.282;2022-11-03T14:43:29;22.90;67.50
1367;DHT22;16877;48.810;9.282;2022-11-03T14:45:56;23.00;67.20
1367;DHT22;16877;48.810;9.282;2022-11-03T14:48:23;22.80;67.00
1367;DHT22;16877;48.810;9.282;2022-11-03T14:50:50;23.20;67.40
1367;DHT22;16877;48.810;9.282;2022-11-03T14:53:19;23.00;67.20
1367;DHT22;16877;48.810;9.282;2022-11-03T14:55:45;23.00;67.20
1367;DHT22;16877;48.810;9.282;2022-11-03T14:58:12;22.90;67.60
1367;DHT22;16877;48.810;9.282;2022-11-03T15:00:39;22.80;67.60
1367;DHT22;16877;48.810;9.282;2022-11-03T15:03:06;22.90;68.00
1367;DHT22;16877;48.810;9.282;2022-11-03T15:05:32;22.80;68.10
1367;DHT22;16877;48.810;9.282;2022-11-03T15:08:12;22.90;68.30
1367;DHT22;16877;48.810;9.282;2022-11-03T15:10:40;22.80;67.40
1367;DHT22;16877;48.810;9.282;2022-11-03T15:13:08;22.60;65.80
1367;DHT22;16877;48.810;9.282;2022-11-03T15:15:35;22.50;65.10
1367;DHT22;16877;48.810;9.282;2022-11-03T15:18:02;22.30;64.50
1367;DHT22;16877;48.810;9.282;2022-11-03T15:20:29;22.20;63.90
1367;DHT22;16877;48.810;9.282;2022-11-03T15:22:56;22.40;63.30
1367;DHT22;16877;48.810;9.282;2022-11-03T15:25:22;22.40;63.80
1367;DHT22;16877;48.810;9.282;2022-11-03T15:27:51;22.30;63.80
1367;DHT22;16877;48.810;9.282;2022-11-03T15:30:17;22.30;64.70
1367;DHT22;16877;48.810;9.282;2022-11-03T15:32:44;22.30;64.80
1367;DHT22;16877;48.810;9.282;2022-11-03T15:35:11;22.40;65.50
1367;DHT22;16877;48.810;9.282;2022-11-03T15:37:37;22.60;66.30
1367;DHT22;16877;48.810;9.282;2022-11-03T15:40:05;22.20;66.00
1367;DHT22;16877;48.810;9.282;2022-11-03T15:42:32;22.50;66.10
1367;DHT22;16877;48.810;9.282;2022-11-03T15:45:01;22.40;66.50
1367;DHT22;16877;48.810;9.282;2022-11-03T15:47:27;22.50;66.70
1367;DHT22;16877;48.810;9.282;2022-11-03T15:49:54;22.40;67.00
1367;DHT22;16877;48.810;9.282;2022-11-03T15:52:21;22.20;66.40
1367;DHT22;16877;48.810;9.282;2022-11-03T15:54:47;22.20;66.90
1367;DHT22;16877;48.810;9.282;2022-11-03T15:57:14;22.50;66.90
1367;DHT22;16877;48.810;9.282;2022-11-03T15:59:41;22.30;66.20
1367;DHT22;16877;48.810;9.282;2022-11-03T16:02:09;22.20;65.90
1367;DHT22;16877;48.810;9.282;2022-11-03T16:04:36;22.10;66.10
1367;DHT22;16877;48.810;9.282;2022-11-03T16:07:02;22.20;65.90
1367;DHT22;16877;48.810;9.282;2022-11-03T16:09:29;22.30;66.50
1367;DHT22;16877;48.810;9.282;2022-11-03T16:11:56;22.20;66.60
1367;DHT22;16877;48.810;9.282;2022-11-03T16:14:23;22.20;66.90